sensor_id;sensor_type;location;lat;lon;timestamp;P1;durP1;ratioP1;P2;durP2;ratioP2
37895;SDS011;23733;53.254;10.430;2023-05-17T00:00:15;15.10;;;4.13;;
37895;SDS011;23733;53.254;10.430;2023-05-17T00:02:41;15.40;;;3.80;;
37895;SDS011;23733;53.254;10.430;2023-05-17T00:05:07;13.83;;;4.20;;
37895;SDS011;23733;53.254;10.430;2023-05-17T00:07:36;17.97;;;4.20;;
37895;SDS011;23733;53.254;10.430;2023-05-17T00:10:02;16.83;;;4.30;;
37895;SDS011;23733;53.254;10.430;2023-05-17T00:12:28;13.33;;;4.23;;
37895;SDS011;23733;53.254;10.430;2023-05-17T00:14:54;14.43;;;3.80;;
37895;SDS011;23733;53.254;10.430;2023-05-17T00:17:20;15.53;;;4.03;;
37895;SDS011;23733;53.254;10.430;2023-05-17T00:19:46;16.17;;;4.40;;
37895;SDS011;23733;53.254;10.430;2023-05-17T00:22:12;14.50;;;3.90;;
37895;SDS011;23733;53.254;10.430;2023-05-17T00:24:38;14.43;;;4.27;;
37895;SDS011;23733;53.254;10.430;2023-05-17T00:27:04;14.63;;;4.23;;
37895;SDS011;23733;53.254;10.430;2023-05-17T00:29:30;12.27;;;4.60;;
37895;SDS011;23733;53.254;10.430;2023-05-17T00:31:56;17.50;;;4.33;;
37895;SDS011;23733;53.254;10.430;2023-05-17T00:34:22;18.17;;;4.03;;
37895;SDS011;23733;53.254;10.430;2023-05-17T00:36:48;14.70;;;3.83;;
37895;SDS011;23733;53.254;10.430;2023-05-17T00:39:14;18.87;;;3.87;;
37895;SDS011;23733;53.254;10.430;2023-05-17T00:41:40;13.27;;;4.10;;
37895;SDS011;23733;53.254;10.430;2023-05-17T00:44:07;15.47;;;4.03;;
37895;SDS011;23733;53.254;10.430;2023-05-17T00:46:33;16.53;;;3.67;;
37895;SDS011;23733;53.254;10.430;2023-05-17T00:48:59;16.57;;;4.10;;
37895;SDS011;23733;53.254;10.430;2023-05-17T00:51:25;14.70;;;3.97;;
37895;SDS011;23733;53.254;10.430;2023-05-17T00:53:51;15.93;;;4.47;;
37895;SDS011;23733;53.254;10.430;2023-05-17T00:56:17;18.03;;;4.10;;
37895;SDS011;23733;53.254;10.430;2023-05-17T00:58:43;12.97;;;3.80;;
37895;SDS011;23733;53.254;10.430;2023-05-17T01:01:09;20.50;;;4.60;;
37895;SDS011;23733;53.254;10.430;2023-05-17T01:03:36;15.37;;;4.03;;
37895;SDS011;23733;53.254;10.430;2023-05-17T01:06:03;15.60;;;3.97;;
37895;SDS011;23733;53.254;10.430;2023-05-17T01:08:30;21.37;;;4.20;;
37895;SDS011;23733;53.254;10.430;2023-05-17T01:11:13;14.50;;;3.93;;
37895;SDS011;23733;53.254;10.430;2023-05-17T01:14:08;13.70;;;3.90;;
37895;SDS011;23733;53.254;10.430;2023-05-17T01:16:56;16.83;;;4.37;;
37895;SDS011;23733;53.254;10.430;2023-05-17T01:19:39;13.77;;;3.90;;
37895;SDS011;23733;53.254;10.430;2023-05-17T01:25:05;16.67;;;3.87;;
37895;SDS011;23733;53.254;10.430;2023-05-17T01:27:32;17.20;;;4.20;;
37895;SDS011;23733;53.254;10.430;2023-05-17T01:30:00;13.87;;;4.30;;
37895;SDS011;23733;53.254;10.430;2023-05-17T01:32:27;15.80;;;4.07;;
37895;SDS011;23733;53.254;10.430;2023-05-17T01:34:54;11.93;;;4.73;;
37895;SDS011;23733;53.254;10.430;2023-05-17T01:37:20;22.17;;;4.37;;
37895;SDS011;23733;53.254;10.430;2023-05-17T01:39:46;15.30;;;3.83;;
37895;SDS011;23733;53.254;10.430;2023-05-17T01:42:15;15.73;;;3.73;;
37895;SDS011;23733;53.254;10.430;2023-05-17T01:44:55;13.37;;;4.07;;
37895;SDS011;23733;53.254;10.430;2023-05-17T01:50:06;17.73;;;3.80;;
37895;SDS011;23733;53.254;10.430;2023-05-17T01:52:39;14.77;;;3.93;;
37895;SDS011;23733;53.254;10.430;2023-05-17T01:57:53;20.27;;;4.63;;
37895;SDS011;23733;53.254;10.430;2023-05-17T02:00:21;14.23;;;4.07;;
37895;SDS011;23733;53.254;10.430;2023-05-17T02:02:48;12.87;;;3.97;;
37895;SDS011;23733;53.254;10.430;2023-05-17T02:05:15;18.57;;;3.73;;
37895;SDS011;23733;53.254;10.430;2023-05-17T02:07:41;15.97;;;3.90;;
37895;SDS011;23733;53.254;10.430;2023-05-17T02:10:07;13.87;;;3.77;;
37895;SDS011;23733;53.254;10.430;2023-05-17T02:12:33;18.27;;;4.03;;
37895;SDS011;23733;53.254;10.430;2023-05-17T02:14:59;20.73;;;3.50;;
37895;SDS011;23733;53.254;10.430;2023-05-17T02:17:25;17.30;;;3.53;;
37895;SDS011;23733;53.254;10.430;2023-05-17T02:19:51;14.83;;;3.77;;
37895;SDS011;23733;53.254;10.430;2023-05-17T02:22:17;20.00;;;3.70;;
37895;SDS011;23733;53.254;10.430;2023-05-17T02:24:43;14.20;;;3.70;;
37895;SDS011;23733;53.254;10.430;2023-05-17T02:27:09;14.60;;;4.03;;
37895;SDS011;23733;53.254;10.430;2023-05-17T02:29:35;19.70;;;4.13;;
37895;SDS011;23733;53.254;10.430;2023-05-17T02:32:01;13.37;;;3.23;;
37895;SDS011;23733;53.254;10.430;2023-05-17T02:34:27;14.03;;;3.03;;
37895;SDS011;23733;53.254;10.430;2023-05-17T02:36:53;10.43;;;3.10;;
37895;SDS011;23733;53.254;10.430;2023-05-17T02:39:19;18.53;;;3.73;;
37895;SDS011;23733;53.254;10.430;2023-05-17T02:41:45;16.40;;;3.97;;
37895;SDS011;23733;53.254;10.430;2023-05-17T02:44:11;14.10;;;3.40;;
37895;SDS011;23733;53.254;10.430;2023-05-17T02:46:37;17.17;;;3.50;;
37895;SDS011;23733;53.254;10.430;2023-05-17T02:49:03;13.97;;;3.30;;
37895;SDS011;23733;53.254;10.430;2023-05-17T02:51:29;16.63;;;3.30;;
37895;SDS011;23733;53.254;10.430;2023-05-17T02:53:55;19.03;;;3.93;;
37895;SDS011;23733;53.254;10.430;2023-05-17T02:56:21;13.00;;;3.03;;
37895;SDS011;23733;53.254;10.430;2023-05-17T02:58:47;19.97;;;4.30;;
37895;SDS011;23733;53.254;10.430;2023-05-17T03:01:13;16.10;;;3.03;;
37895;SDS011;23733;53.254;10.430;2023-05-17T03:03:39;12.83;;;3.07;;
37895;SDS011;23733;53.254;10.430;2023-05-17T03:06:05;17.97;;;3.60;;
37895;SDS011;23733;53.254;10.430;2023-05-17T03:08:31;15.07;;;3.33;;
37895;SDS011;23733;53.254;10.430;2023-05-17T03:10:57;17.10;;;3.13;;
37895;SDS011;23733;53.254;10.430;2023-05-17T03:13:23;16.60;;;3.27;;
37895;SDS011;23733;53.254;10.430;2023-05-17T03:15:49;14.93;;;3.17;;
37895;SDS011;23733;53.254;10.430;2023-05-17T03:18:15;15.83;;;3.53;;
37895;SDS011;23733;53.254;10.430;2023-05-17T03:20:41;12.00;;;3.27;;
37895;SDS011;23733;53.254;10.430;2023-05-17T03:23:08;10.57;;;3.10;;
37895;SDS011;23733;53.254;10.430;2023-05-17T03:25:34;15.60;;;3.00;;
37895;SDS011;23733;53.254;10.430;2023-05-17T03:28:00;18.33;;;2.87;;
37895;SDS011;23733;53.254;10.430;2023-05-17T03:30:26;19.20;;;3.20;;
37895;SDS011;23733;53.254;10.430;2023-05-17T03:32:52;19.43;;;3.47;;
37895;SDS011;23733;53.254;10.430;2023-05-17T03:35:19;19.00;;;3.67;;
37895;SDS011;23733;53.254;10.430;2023-05-17T03:37:45;14.10;;;2.77;;
37895;SDS011;23733;53.254;10.430;2023-05-17T03:40:11;11.73;;;2.43;;
37895;SDS011;23733;53.254;10.430;2023-05-17T03:42:37;17.87;;;3.40;;
37895;SDS011;23733;53.254;10.430;2023-05-17T03:45:03;11.33;;;3.13;;
37895;SDS011;23733;53.254;10.430;2023-05-17T03:47:30;14.80;;;3.10;;
37895;SDS011;23733;53.254;10.430;2023-05-17T03:49:56;15.27;;;3.23;;
37895;SDS011;23733;53.254;10.430;2023-05-17T03:52:22;16.43;;;3.27;;
37895;SDS011;23733;53.254;10.430;2023-05-17T03:54:48;14.37;;;3.07;;
37895;SDS011;23733;53.254;10.430;2023-05-17T03:57:14;16.87;;;3.10;;
37895;SDS011;23733;53.254;10.430;2023-05-17T03:59:40;14.33;;;3.13;;
37895;SDS011;23733;53.254;10.430;2023-05-17T04:02:06;15.10;;;2.47;;
37895;SDS011;23733;53.254;10.430;2023-05-17T04:04:32;17.63;;;2.40;;
37895;SDS011;23733;53.254;10.430;2023-05-17T04:06:58;15.47;;;2.80;;
37895;SDS011;23733;53.254;10.430;2023-05-17T04:09:24;10.17;;;2.93;;
37895;SDS011;23733;53.254;10.430;2023-05-17T04:11:50;19.83;;;2.63;;
37895;SDS011;23733;53.254;10.430;2023-05-17T04:14:16;13.77;;;2.77;;
37895;SDS011;23733;53.254;10.430;2023-05-17T04:16:43;16.03;;;2.77;;
37895;SDS011;23733;53.254;10.430;2023-05-17T04:19:09;13.27;;;2.60;;
37895;SDS011;23733;53.254;10.430;2023-05-17T04:21:35;13.30;;;2.70;;
37895;SDS011;23733;53.254;10.430;2023-05-17T04:24:01;15.80;;;3.17;;
37895;SDS011;23733;53.254;10.430;2023-05-17T04:26:27;12.30;;;2.87;;
37895;SDS011;23733;53.254;10.430;2023-05-17T04:28:53;13.33;;;2.80;;
37895;SDS011;23733;53.254;10.430;2023-05-17T04:31:19;14.23;;;3.03;;
37895;SDS011;23733;53.254;10.430;2023-05-17T04:33:45;13.50;;;2.93;;
37895;SDS011;23733;53.254;10.430;2023-05-17T04:36:11;11.80;;;2.23;;
37895;SDS011;23733;53.254;10.430;2023-05-17T04:38:37;9.73;;;2.43;;
37895;SDS011;23733;53.254;10.430;2023-05-17T04:41:03;9.83;;;2.50;;
37895;SDS011;23733;53.254;10.430;2023-05-17T04:43:31;12.67;;;2.70;;
37895;SDS011;23733;53.254;10.430;2023-05-17T04:45:57;10.80;;;2.53;;
37895;SDS011;23733;53.254;10.430;2023-05-17T04:48:25;12.30;;;2.33;;
37895;SDS011;23733;53.254;10.430;2023-05-17T04:50:52;9.53;;;2.13;;
37895;SDS011;23733;53.254;10.430;2023-05-17T04:53:18;13.60;;;3.17;;
37895;SDS011;23733;53.254;10.430;2023-05-17T04:55:44;10.77;;;2.73;;
37895;SDS011;23733;53.254;10.430;2023-05-17T04:58:12;16.07;;;3.60;;
37895;SDS011;23733;53.254;10.430;2023-05-17T05:00:38;14.60;;;2.13;;
37895;SDS011;23733;53.254;10.430;2023-05-17T05:03:04;9.90;;;2.80;;
37895;SDS011;23733;53.254;10.430;2023-05-17T05:05:31;11.93;;;2.43;;
37895;SDS011;23733;53.254;10.430;2023-05-17T05:07:57;12.33;;;2.27;;
37895;SDS011;23733;53.254;10.430;2023-05-17T05:10:23;18.23;;;3.57;;
37895;SDS011;23733;53.254;10.430;2023-05-17T05:12:49;12.63;;;2.63;;
37895;SDS011;23733;53.254;10.430;2023-05-17T05:15:15;15.87;;;2.47;;
37895;SDS011;23733;53.254;10.430;2023-05-17T05:17:41;17.67;;;3.10;;
37895;SDS011;23733;53.254;10.430;2023-05-17T05:20:08;16.63;;;2.63;;
37895;SDS011;23733;53.254;10.430;2023-05-17T05:22:34;11.13;;;2.60;;
37895;SDS011;23733;53.254;10.430;2023-05-17T05:25:00;9.00;;;2.33;;
37895;SDS011;23733;53.254;10.430;2023-05-17T05:27:26;17.87;;;2.80;;
37895;SDS011;23733;53.254;10.430;2023-05-17T05:29:53;14.53;;;3.00;;
37895;SDS011;23733;53.254;10.430;2023-05-17T05:32:19;15.07;;;3.30;;
37895;SDS011;23733;53.254;10.430;2023-05-17T05:34:45;14.67;;;2.40;;
37895;SDS011;23733;53.254;10.430;2023-05-17T05:37:11;14.47;;;2.80;;
37895;SDS011;23733;53.254;10.430;2023-05-17T05:39:37;15.90;;;3.17;;
37895;SDS011;23733;53.254;10.430;2023-05-17T05:42:03;14.53;;;2.87;;
37895;SDS011;23733;53.254;10.430;2023-05-17T05:44:30;10.10;;;2.27;;
37895;SDS011;23733;53.254;10.430;2023-05-17T05:46:56;14.27;;;2.53;;
37895;SDS011;23733;53.254;10.430;2023-05-17T05:49:22;15.03;;;2.90;;
37895;SDS011;23733;53.254;10.430;2023-05-17T05:51:48;11.90;;;2.60;;
37895;SDS011;23733;53.254;10.430;2023-05-17T05:54:14;17.33;;;3.00;;
37895;SDS011;23733;53.254;10.430;2023-05-17T05:56:41;17.80;;;2.97;;
37895;SDS011;23733;53.254;10.430;2023-05-17T05:59:07;12.60;;;2.20;;
37895;SDS011;23733;53.254;10.430;2023-05-17T06:01:33;14.50;;;2.80;;
37895;SDS011;23733;53.254;10.430;2023-05-17T06:03:59;11.97;;;2.37;;
37895;SDS011;23733;53.254;10.430;2023-05-17T06:06:25;18.63;;;3.00;;
37895;SDS011;23733;53.254;10.430;2023-05-17T06:08:51;13.43;;;2.20;;
37895;SDS011;23733;53.254;10.430;2023-05-17T06:11:17;17.00;;;3.07;;
37895;SDS011;23733;53.254;10.430;2023-05-17T06:13:45;9.00;;;2.30;;
37895;SDS011;23733;53.254;10.430;2023-05-17T06:16:11;13.97;;;2.60;;
37895;SDS011;23733;53.254;10.430;2023-05-17T06:18:37;11.57;;;2.17;;
37895;SDS011;23733;53.254;10.430;2023-05-17T06:21:03;15.63;;;2.60;;
37895;SDS011;23733;53.254;10.430;2023-05-17T06:23:29;17.30;;;2.40;;
37895;SDS011;23733;53.254;10.430;2023-05-17T06:25:55;13.83;;;2.83;;
37895;SDS011;23733;53.254;10.430;2023-05-17T06:28:21;13.33;;;2.67;;
37895;SDS011;23733;53.254;10.430;2023-05-17T06:30:47;16.37;;;2.83;;
37895;SDS011;23733;53.254;10.430;2023-05-17T06:33:13;14.20;;;2.77;;
37895;SDS011;23733;53.254;10.430;2023-05-17T06:35:39;13.57;;;2.30;;
37895;SDS011;23733;53.254;10.430;2023-05-17T06:38:05;16.73;;;2.70;;
37895;SDS011;23733;53.254;10.430;2023-05-17T06:40:31;11.07;;;2.27;;
37895;SDS011;23733;53.254;10.430;2023-05-17T06:42:57;19.17;;;3.30;;
37895;SDS011;23733;53.254;10.430;2023-05-17T06:45:23;10.87;;;2.57;;
37895;SDS011;23733;53.254;10.430;2023-05-17T06:47:51;17.63;;;2.53;;
37895;SDS011;23733;53.254;10.430;2023-05-17T06:50:17;15.40;;;2.50;;
37895;SDS011;23733;53.254;10.430;2023-05-17T06:52:43;10.70;;;2.70;;
37895;SDS011;23733;53.254;10.430;2023-05-17T06:55:09;17.27;;;3.13;;
37895;SDS011;23733;53.254;10.430;2023-05-17T06:57:35;10.83;;;2.33;;
37895;SDS011;23733;53.254;10.430;2023-05-17T07:00:01;12.23;;;2.90;;
37895;SDS011;23733;53.254;10.430;2023-05-17T07:02:31;10.53;;;2.30;;
37895;SDS011;23733;53.254;10.430;2023-05-17T07:04:57;10.93;;;2.43;;
37895;SDS011;23733;53.254;10.430;2023-05-17T07:07:23;12.80;;;2.20;;
37895;SDS011;23733;53.254;10.430;2023-05-17T07:09:49;10.43;;;2.30;;
37895;SDS011;23733;53.254;10.430;2023-05-17T07:12:15;13.07;;;2.53;;
37895;SDS011;23733;53.254;10.430;2023-05-17T07:14:41;17.77;;;2.73;;
37895;SDS011;23733;53.254;10.430;2023-05-17T07:17:09;11.53;;;2.00;;
37895;SDS011;23733;53.254;10.430;2023-05-17T07:19:36;10.70;;;1.83;;
37895;SDS011;23733;53.254;10.430;2023-05-17T07:22:02;14.63;;;2.60;;
37895;SDS011;23733;53.254;10.430;2023-05-17T07:24:28;12.73;;;2.17;;
37895;SDS011;23733;53.254;10.430;2023-05-17T07:26:54;15.40;;;2.60;;
37895;SDS011;23733;53.254;10.430;2023-05-17T07:29:20;10.17;;;1.90;;
37895;SDS011;23733;53.254;10.430;2023-05-17T07:31:46;8.73;;;1.93;;
37895;SDS011;23733;53.254;10.430;2023-05-17T07:34:12;12.13;;;2.60;;
37895;SDS011;23733;53.254;10.430;2023-05-17T07:36:38;9.80;;;2.03;;
37895;SDS011;23733;53.254;10.430;2023-05-17T07:39:04;13.10;;;2.90;;
37895;SDS011;23733;53.254;10.430;2023-05-17T07:41:30;13.90;;;2.70;;
37895;SDS011;23733;53.254;10.430;2023-05-17T07:43:58;17.57;;;2.70;;
37895;SDS011;23733;53.254;10.430;2023-05-17T07:46:24;8.20;;;1.87;;
37895;SDS011;23733;53.254;10.430;2023-05-17T07:48:50;10.73;;;2.30;;
37895;SDS011;23733;53.254;10.430;2023-05-17T07:51:16;7.50;;;1.90;;
37895;SDS011;23733;53.254;10.430;2023-05-17T07:53:42;14.90;;;2.50;;
37895;SDS011;23733;53.254;10.430;2023-05-17T07:56:08;9.03;;;2.10;;
37895;SDS011;23733;53.254;10.430;2023-05-17T07:58:34;9.00;;;2.17;;
37895;SDS011;23733;53.254;10.430;2023-05-17T08:01:00;10.60;;;2.27;;
37895;SDS011;23733;53.254;10.430;2023-05-17T08:03:26;9.80;;;2.33;;
37895;SDS011;23733;53.254;10.430;2023-05-17T08:05:53;8.23;;;2.07;;
37895;SDS011;23733;53.254;10.430;2023-05-17T08:08:19;9.50;;;2.10;;
37895;SDS011;23733;53.254;10.430;2023-05-17T08:10:45;11.70;;;2.53;;
37895;SDS011;23733;53.254;10.430;2023-05-17T08:13:11;9.60;;;1.97;;
37895;SDS011;23733;53.254;10.430;2023-05-17T08:15:37;12.40;;;2.10;;
37895;SDS011;23733;53.254;10.430;2023-05-17T08:18:03;13.57;;;2.33;;
37895;SDS011;23733;53.254;10.430;2023-05-17T08:20:30;16.27;;;2.40;;
37895;SDS011;23733;53.254;10.430;2023-05-17T08:22:56;8.83;;;2.00;;
37895;SDS011;23733;53.254;10.430;2023-05-17T08:25:22;15.53;;;2.70;;
37895;SDS011;23733;53.254;10.430;2023-05-17T08:27:48;8.70;;;1.97;;
37895;SDS011;23733;53.254;10.430;2023-05-17T08:30:14;10.10;;;2.50;;
37895;SDS011;23733;53.254;10.430;2023-05-17T08:32:40;7.63;;;2.20;;
37895;SDS011;23733;53.254;10.430;2023-05-17T08:35:06;10.97;;;2.40;;
37895;SDS011;23733;53.254;10.430;2023-05-17T08:37:32;11.07;;;2.47;;
37895;SDS011;23733;53.254;10.430;2023-05-17T08:39:58;10.77;;;2.40;;
37895;SDS011;23733;53.254;10.430;2023-05-17T08:42:24;8.90;;;2.30;;
37895;SDS011;23733;53.254;10.430;2023-05-17T08:44:51;10.57;;;2.07;;
37895;SDS011;23733;53.254;10.430;2023-05-17T08:47:18;9.33;;;2.17;;
37895;SDS011;23733;53.254;10.430;2023-05-17T08:49:54;16.90;;;2.20;;
37895;SDS011;23733;53.254;10.430;2023-05-17T08:52:30;5.93;;;1.70;;
37895;SDS011;23733;53.254;10.430;2023-05-17T08:54:57;7.70;;;2.17;;
37895;SDS011;23733;53.254;10.430;2023-05-17T08:57:26;8.70;;;2.30;;
37895;SDS011;23733;53.254;10.430;2023-05-17T08:59:54;10.80;;;2.10;;
37895;SDS011;23733;53.254;10.430;2023-05-17T09:02:21;11.87;;;2.00;;
37895;SDS011;23733;53.254;10.430;2023-05-17T09:04:48;8.23;;;2.00;;
37895;SDS011;23733;53.254;10.430;2023-05-17T09:07:20;7.50;;;1.90;;
37895;SDS011;23733;53.254;10.430;2023-05-17T09:09:50;7.70;;;2.00;;
37895;SDS011;23733;53.254;10.430;2023-05-17T09:12:18;8.67;;;2.10;;
37895;SDS011;23733;53.254;10.430;2023-05-17T09:14:45;8.83;;;1.90;;
37895;SDS011;23733;53.254;10.430;2023-05-17T09:17:17;14.20;;;2.50;;
37895;SDS011;23733;53.254;10.430;2023-05-17T09:19:45;9.77;;;2.30;;
37895;SDS011;23733;53.254;10.430;2023-05-17T09:22:13;8.37;;;2.33;;
37895;SDS011;23733;53.254;10.430;2023-05-17T09:24:42;10.00;;;2.53;;
37895;SDS011;23733;53.254;10.430;2023-05-17T09:27:08;10.10;;;2.33;;
37895;SDS011;23733;53.254;10.430;2023-05-17T09:29:38;9.17;;;2.00;;
37895;SDS011;23733;53.254;10.430;2023-05-17T09:32:14;10.53;;;2.17;;
37895;SDS011;23733;53.254;10.430;2023-05-17T09:34:42;11.23;;;2.50;;
37895;SDS011;23733;53.254;10.430;2023-05-17T09:37:13;12.90;;;2.20;;
37895;SDS011;23733;53.254;10.430;2023-05-17T09:39:41;8.03;;;2.00;;
37895;SDS011;23733;53.254;10.430;2023-05-17T09:42:11;8.67;;;2.00;;
37895;SDS011;23733;53.254;10.430;2023-05-17T09:44:45;6.10;;;1.77;;
37895;SDS011;23733;53.254;10.430;2023-05-17T09:47:20;8.13;;;2.27;;
37895;SDS011;23733;53.254;10.430;2023-05-17T09:49:47;10.87;;;2.20;;
37895;SDS011;23733;53.254;10.430;2023-05-17T09:52:16;9.10;;;1.93;;
37895;SDS011;23733;53.254;10.430;2023-05-17T09:54:55;6.60;;;1.87;;
37895;SDS011;23733;53.254;10.430;2023-05-17T09:57:27;8.47;;;2.00;;
37895;SDS011;23733;53.254;10.430;2023-05-17T10:00:01;8.80;;;1.90;;
37895;SDS011;23733;53.254;10.430;2023-05-17T10:02:30;6.93;;;2.20;;
37895;SDS011;23733;53.254;10.430;2023-05-17T10:04:59;12.37;;;2.20;;
37895;SDS011;23733;53.254;10.430;2023-05-17T10:07:31;8.67;;;1.70;;
37895;SDS011;23733;53.254;10.430;2023-05-17T10:09:59;6.07;;;2.07;;
37895;SDS011;23733;53.254;10.430;2023-05-17T10:12:28;12.77;;;2.63;;
37895;SDS011;23733;53.254;10.430;2023-05-17T10:14:59;6.40;;;1.77;;
37895;SDS011;23733;53.254;10.430;2023-05-17T10:17:26;10.10;;;2.00;;
37895;SDS011;23733;53.254;10.430;2023-05-17T10:19:56;12.83;;;2.47;;
37895;SDS011;23733;53.254;10.430;2023-05-17T10:22:23;10.40;;;2.20;;
37895;SDS011;23733;53.254;10.430;2023-05-17T10:24:50;12.33;;;2.27;;
37895;SDS011;23733;53.254;10.430;2023-05-17T10:27:16;9.93;;;2.00;;
37895;SDS011;23733;53.254;10.430;2023-05-17T10:29:43;11.33;;;2.23;;
37895;SDS011;23733;53.254;10.430;2023-05-17T10:32:11;24.60;;;2.20;;
37895;SDS011;23733;53.254;10.430;2023-05-17T10:34:38;12.13;;;2.27;;
37895;SDS011;23733;53.254;10.430;2023-05-17T10:37:05;6.30;;;1.60;;
37895;SDS011;23733;53.254;10.430;2023-05-17T10:39:31;9.53;;;2.50;;
37895;SDS011;23733;53.254;10.430;2023-05-17T10:42:03;11.53;;;2.30;;
37895;SDS011;23733;53.254;10.430;2023-05-17T10:44:32;8.17;;;1.70;;
37895;SDS011;23733;53.254;10.430;2023-05-17T10:46:59;16.87;;;2.60;;
37895;SDS011;23733;53.254;10.430;2023-05-17T10:49:28;11.73;;;1.73;;
37895;SDS011;23733;53.254;10.430;2023-05-17T10:51:56;5.47;;;1.70;;
37895;SDS011;23733;53.254;10.430;2023-05-17T10:54:47;7.07;;;1.93;;
37895;SDS011;23733;53.254;10.430;2023-05-17T10:57:20;5.77;;;1.60;;
37895;SDS011;23733;53.254;10.430;2023-05-17T11:00:06;8.57;;;2.23;;
37895;SDS011;23733;53.254;10.430;2023-05-17T11:02:38;8.47;;;2.03;;
37895;SDS011;23733;53.254;10.430;2023-05-17T11:05:06;9.33;;;1.70;;
37895;SDS011;23733;53.254;10.430;2023-05-17T11:07:47;9.43;;;2.47;;
37895;SDS011;23733;53.254;10.430;2023-05-17T11:10:13;14.67;;;2.67;;
37895;SDS011;23733;53.254;10.430;2023-05-17T11:12:44;12.73;;;2.67;;
37895;SDS011;23733;53.254;10.430;2023-05-17T11:15:23;13.13;;;2.40;;
37895;SDS011;23733;53.254;10.430;2023-05-17T11:17:52;8.83;;;2.43;;
37895;SDS011;23733;53.254;10.430;2023-05-17T11:23:04;9.07;;;2.40;;
37895;SDS011;23733;53.254;10.430;2023-05-17T11:28:05;8.03;;;1.77;;
37895;SDS011;23733;53.254;10.430;2023-05-17T11:30:33;9.90;;;2.30;;
37895;SDS011;23733;53.254;10.430;2023-05-17T11:33:04;7.43;;;2.10;;
37895;SDS011;23733;53.254;10.430;2023-05-17T11:35:34;8.10;;;1.93;;
37895;SDS011;23733;53.254;10.430;2023-05-17T11:38:17;8.47;;;2.57;;
37895;SDS011;23733;53.254;10.430;2023-05-17T11:40:46;8.17;;;2.10;;
37895;SDS011;23733;53.254;10.430;2023-05-17T11:43:14;5.73;;;1.77;;
37895;SDS011;23733;53.254;10.430;2023-05-17T11:45:52;8.47;;;2.00;;
37895;SDS011;23733;53.254;10.430;2023-05-17T11:48:22;7.10;;;1.93;;
37895;SDS011;23733;53.254;10.430;2023-05-17T11:50:50;9.47;;;2.13;;
37895;SDS011;23733;53.254;10.430;2023-05-17T11:53:18;6.13;;;1.93;;
37895;SDS011;23733;53.254;10.430;2023-05-17T11:55:45;8.33;;;2.10;;
37895;SDS011;23733;53.254;10.430;2023-05-17T11:58:13;7.23;;;2.17;;
37895;SDS011;23733;53.254;10.430;2023-05-17T12:00:41;6.77;;;2.10;;
37895;SDS011;23733;53.254;10.430;2023-05-17T12:05:44;4.70;;;1.43;;
37895;SDS011;23733;53.254;10.430;2023-05-17T12:08:18;9.20;;;1.70;;
37895;SDS011;23733;53.254;10.430;2023-05-17T12:10:47;5.20;;;1.77;;
37895;SDS011;23733;53.254;10.430;2023-05-17T12:13:14;5.87;;;1.63;;
37895;SDS011;23733;53.254;10.430;2023-05-17T12:15:42;3.17;;;1.30;;
37895;SDS011;23733;53.254;10.430;2023-05-17T12:18:10;4.90;;;1.60;;
37895;SDS011;23733;53.254;10.430;2023-05-17T12:20:36;5.33;;;1.50;;
37895;SDS011;23733;53.254;10.430;2023-05-17T12:23:03;7.30;;;1.43;;
37895;SDS011;23733;53.254;10.430;2023-05-17T12:25:29;4.23;;;1.33;;
37895;SDS011;23733;53.254;10.430;2023-05-17T12:28:11;2.70;;;1.10;;
37895;SDS011;23733;53.254;10.430;2023-05-17T12:30:38;5.43;;;1.57;;
37895;SDS011;23733;53.254;10.430;2023-05-17T12:33:05;4.60;;;1.40;;
37895;SDS011;23733;53.254;10.430;2023-05-17T12:35:31;7.37;;;1.60;;
37895;SDS011;23733;53.254;10.430;2023-05-17T12:37:58;3.07;;;1.07;;
37895;SDS011;23733;53.254;10.430;2023-05-17T12:40:25;2.33;;;1.10;;
37895;SDS011;23733;53.254;10.430;2023-05-17T12:42:59;6.27;;;1.63;;
37895;SDS011;23733;53.254;10.430;2023-05-17T12:45:26;2.30;;;1.30;;
37895;SDS011;23733;53.254;10.430;2023-05-17T12:47:52;5.07;;;1.67;;
37895;SDS011;23733;53.254;10.430;2023-05-17T12:50:27;7.57;;;1.60;;
37895;SDS011;23733;53.254;10.430;2023-05-17T12:52:57;5.90;;;1.73;;
37895;SDS011;23733;53.254;10.430;2023-05-17T12:55:23;6.87;;;1.60;;
37895;SDS011;23733;53.254;10.430;2023-05-17T12:57:53;6.27;;;1.50;;
37895;SDS011;23733;53.254;10.430;2023-05-17T13:00:19;7.23;;;1.90;;
37895;SDS011;23733;53.254;10.430;2023-05-17T13:02:46;6.97;;;1.70;;
37895;SDS011;23733;53.254;10.430;2023-05-17T13:05:15;7.90;;;2.23;;
37895;SDS011;23733;53.254;10.430;2023-05-17T13:07:48;6.17;;;1.90;;
37895;SDS011;23733;53.254;10.430;2023-05-17T13:10:21;7.43;;;1.60;;
37895;SDS011;23733;53.254;10.430;2023-05-17T13:12:57;6.73;;;1.97;;
37895;SDS011;23733;53.254;10.430;2023-05-17T13:15:30;6.10;;;1.33;;
37895;SDS011;23733;53.254;10.430;2023-05-17T13:17:57;8.37;;;1.80;;
37895;SDS011;23733;53.254;10.430;2023-05-17T13:20:27;2.80;;;1.13;;
37895;SDS011;23733;53.254;10.430;2023-05-17T13:22:53;5.87;;;1.63;;
37895;SDS011;23733;53.254;10.430;2023-05-17T13:25:19;4.17;;;1.90;;
37895;SDS011;23733;53.254;10.430;2023-05-17T13:27:45;4.30;;;1.53;;
37895;SDS011;23733;53.254;10.430;2023-05-17T13:30:14;4.50;;;1.33;;
37895;SDS011;23733;53.254;10.430;2023-05-17T13:32:41;5.70;;;1.60;;
37895;SDS011;23733;53.254;10.430;2023-05-17T13:35:07;5.40;;;1.67;;
37895;SDS011;23733;53.254;10.430;2023-05-17T13:37:34;6.10;;;1.50;;
37895;SDS011;23733;53.254;10.430;2023-05-17T13:40:01;7.50;;;1.60;;
37895;SDS011;23733;53.254;10.430;2023-05-17T13:42:28;6.87;;;1.63;;
37895;SDS011;23733;53.254;10.430;2023-05-17T13:44:54;5.80;;;1.50;;
37895;SDS011;23733;53.254;10.430;2023-05-17T13:47:20;5.30;;;1.50;;
37895;SDS011;23733;53.254;10.430;2023-05-17T13:49:47;4.90;;;1.77;;
37895;SDS011;23733;53.254;10.430;2023-05-17T13:52:13;7.07;;;1.70;;
37895;SDS011;23733;53.254;10.430;2023-05-17T13:54:39;4.40;;;1.47;;
37895;SDS011;23733;53.254;10.430;2023-05-17T13:57:05;10.47;;;1.83;;
37895;SDS011;23733;53.254;10.430;2023-05-17T13:59:32;8.40;;;1.97;;
37895;SDS011;23733;53.254;10.430;2023-05-17T14:01:58;5.00;;;2.10;;
37895;SDS011;23733;53.254;10.430;2023-05-17T14:04:24;7.63;;;1.93;;
37895;SDS011;23733;53.254;10.430;2023-05-17T14:06:50;3.53;;;1.67;;
37895;SDS011;23733;53.254;10.430;2023-05-17T14:09:16;7.40;;;1.57;;
37895;SDS011;23733;53.254;10.430;2023-05-17T14:11:42;9.07;;;1.80;;
37895;SDS011;23733;53.254;10.430;2023-05-17T14:14:08;7.17;;;1.93;;
37895;SDS011;23733;53.254;10.430;2023-05-17T14:16:34;6.77;;;2.00;;
37895;SDS011;23733;53.254;10.430;2023-05-17T14:19:00;8.83;;;1.80;;
37895;SDS011;23733;53.254;10.430;2023-05-17T14:21:26;6.87;;;2.10;;
37895;SDS011;23733;53.254;10.430;2023-05-17T14:23:52;5.60;;;1.70;;
37895;SDS011;23733;53.254;10.430;2023-05-17T14:26:18;5.90;;;2.37;;
37895;SDS011;23733;53.254;10.430;2023-05-17T14:28:46;6.77;;;1.80;;
37895;SDS011;23733;53.254;10.430;2023-05-17T14:31:12;6.40;;;1.93;;
37895;SDS011;23733;53.254;10.430;2023-05-17T14:33:37;11.87;;;2.10;;
37895;SDS011;23733;53.254;10.430;2023-05-17T14:36:04;4.73;;;1.50;;
37895;SDS011;23733;53.254;10.430;2023-05-17T14:38:30;11.33;;;2.23;;
37895;SDS011;23733;53.254;10.430;2023-05-17T14:40:56;8.57;;;2.03;;
37895;SDS011;23733;53.254;10.430;2023-05-17T14:43:24;5.87;;;2.07;;